Have a Safe July 4th! 

Flight Track Log - Related Links

Times and Time Zones

All times are in EST time to prevent confusion due to time zone crossing. See the CHH7104 flight status page for this flight to view local times or setup timezone preferences in your user account.

Time Position Orientation Groundspeed Altitude Reporting Facility
EST Latitude Longitude Course Direction KTS MPH feet Rate Location/Type
Sat 10:14:00 PM 44.4897 129.4392 250° West  Level Estimated
Sat 10:15:00 PM 44.4551 129.3095 250° West  Level Estimated
Sat 10:16:00 PM 44.4204 129.1800 249° West  Level Estimated
Sat 10:17:00 PM 44.3855 129.0506 249° West  Level Estimated
Sat 10:18:00 PM 44.3505 128.9214 249° West  Level Estimated
Sat 10:19:00 PM 44.3153 128.7924 249° West  Level Estimated
Sat 10:20:00 PM 44.2800 128.6635 249° West  Level Estimated
Sat 10:21:00 PM 44.2446 128.5348 249° West  Level Estimated
Sat 10:22:00 PM 44.2090 128.4062 249° West  Level Estimated
Sat 10:23:00 PM 44.1733 128.2778 249° West  Level Estimated
Sat 10:24:00 PM 44.1374 128.1495 249° West  Level Estimated
Sat 10:25:00 PM 44.1014 128.0214 249° West  Level Estimated
Sat 10:26:00 PM 44.0652 127.8934 249° West  Level Estimated
Sat 10:27:00 PM 44.0289 127.7656 248° West  Level Estimated
Sat 10:28:00 PM 43.9925 127.6380 248° West  Level Estimated
Sat 10:29:00 PM 43.9559 127.5105 248° West  Level Estimated
Sat 10:30:00 PM 43.9192 127.3832 248° West  Level Estimated
Sat 10:31:00 PM 43.8823 127.2560 248° West  Level Estimated
Sat 10:32:00 PM 43.8453 127.1290 248° West  Level Estimated
Sat 10:33:00 PM 43.8081 127.0021 248° West  Level Estimated
Sat 10:34:00 PM 43.7708 126.8754 248° West  Level Estimated
Sat 10:35:00 PM 43.7334 126.7489 248° West  Level Estimated
Sat 10:36:00 PM 43.6958 126.6225 248° West  Level Estimated
Sat 10:37:00 PM 43.6581 126.4963 248° West  Level Estimated
Sat 10:38:00 PM 43.6203 126.3702 248° West  Level Estimated
Sat 10:39:00 PM 43.5823 126.2443 247° West  Level Estimated
Sat 10:40:00 PM 43.5442 126.1186 247° West  Level Estimated
Sat 10:41:00 PM 43.5059 125.9930 247° West  Level Estimated
Sat 10:42:00 PM 43.4675 125.8676 247° West  Level Estimated
Sat 10:43:00 PM 43.4290 125.7423 247° West  Level Estimated
Sat 10:44:00 PM 43.3903 125.6172 247° West  Level Estimated
Sat 10:45:00 PM 43.3515 125.4922 247° West  Level Estimated
Sat 10:46:00 PM 43.3125 125.3674 247° West  Level Estimated
Sat 10:47:00 PM 43.2734 125.2428 247° West  Level Estimated
Sat 10:48:00 PM 43.2342 125.1183 247° West  Level Estimated
Sat 10:49:00 PM 43.1949 124.9940 247° West  Level Estimated
Sat 10:50:00 PM 43.1554 124.8699 246° West  Level Estimated
Sat 10:51:00 PM 43.1158 124.7459 246° West  Level Estimated
Sat 10:52:00 PM 43.0760 124.6221 246° West  Level Estimated
Sat 10:53:00 PM 43.0361 124.4984 246° West  Level Estimated
Sat 10:54:00 PM 42.9961 124.3749 246° West  Level Estimated
Sat 10:55:00 PM 42.9560 124.2516 246° West  Level Estimated
Sat 10:56:00 PM 42.9157 124.1284 246° West  Level Estimated
Sat 10:57:00 PM 42.8753 124.0054 246° West  Level Estimated
Sat 10:58:00 PM 42.8347 123.8825 246° West  Level Estimated
Sat 10:59:00 PM 42.7940 123.7598 246° West  Level Estimated
Sat 11:00:00 PM 42.7532 123.6373 246° West  Level Estimated
Sat 11:01:00 PM 42.7123 123.5149 246° West  Level Estimated
Sat 11:02:00 PM 42.6712 123.3927 245° Southwest  Level Estimated
Sat 11:03:00 PM 42.6300 123.2707 245° Southwest  Level Estimated
Sat 11:04:00 PM 42.5887 123.1488 245° Southwest  Level Estimated
Sat 11:05:00 PM 42.5472 123.0270 245° Southwest  Level Estimated
Sat 11:06:00 PM 42.5056 122.9055 245° Southwest  Level Estimated
Sat 11:07:00 PM 42.4639 122.7841 245° Southwest  Level Estimated
Sat 11:08:00 PM 42.4221 122.6628 245° Southwest  Level Estimated
Sat 11:09:00 PM 42.3801 122.5417 245° Southwest  Level Estimated
Sat 11:10:00 PM 42.3380 122.4208 245° Southwest  Level Estimated
Sat 11:11:00 PM 42.2958 122.3001 245° Southwest  Level Estimated
Sat 11:12:00 PM 42.2534 122.1795 245° Southwest  Level Estimated
Sat 11:13:00 PM 42.2109 122.0590 245° Southwest  Level Estimated
Sat 11:14:00 PM 42.1683 121.9388 244° Southwest  Level Estimated
Sat 11:15:00 PM 42.1256 121.8187 244° Southwest  Level Estimated
Sat 11:16:00 PM 42.0828 121.6987 244° Southwest  Level Estimated
Sat 11:17:00 PM 42.0398 121.5789 244° Southwest  Level Estimated
Sat 11:18:00 PM 41.9967 121.4593 244° Southwest  Level Estimated
Sat 11:19:00 PM 41.9534 121.3399 244° Southwest  Level Estimated
Sat 11:20:00 PM 41.9101 121.2206 244° Southwest  Level Estimated
Sat 11:21:00 PM 41.8666 121.1014 244° Southwest  Level Estimated
Sat 11:22:00 PM 41.8230 120.9825 244° Southwest  Level Estimated
Sat 11:23:00 PM 41.7793 120.8636 244° Southwest  Level Estimated
Sat 11:24:00 PM 41.7355 120.7450 244° Southwest  Level Estimated
Sat 11:25:00 PM 41.6915 120.6265 244° Southwest  Level Estimated
Sat 11:26:00 PM 41.6474 120.5082 244° Southwest  Level Estimated
Sat 11:27:00 PM 41.6032 120.3900 243° Southwest  Level Estimated
Sat 11:28:00 PM 41.5589 120.2720 243° Southwest  Level Estimated
Sat 11:29:00 PM 41.5144 120.1542 243° Southwest  Level Estimated
Sat 11:30:00 PM 41.4699 120.0365 243° Southwest  Level Estimated
Sat 11:31:00 PM 41.4252 119.9190 243° Southwest  Level Estimated
Sat 11:32:00 PM 41.3804 119.8016 243° Southwest  Level Estimated
Sat 11:33:00 PM 41.3354 119.6844 243° Southwest  Level Estimated
Sat 11:33:00 PM 41.2110 118.4410 243° Southwest 372 428 28,200  Level FlightAware ADS-B
Sat 11:34:00 PM 41.2904 119.5674 243° Southwest  Level Estimated
Sat 11:34:02 PM 41.1930 118.3240 258° West 372 428 28,200  Level FlightAware ADS-B
Sat 11:34:50 PM 41.1780 118.2320 258° West 372 428 28,200  Level FlightAware ADS-B
Sat 11:35:27 PM 41.1670 118.1620 258° West 372 428 28,200  Level FlightAware ADS-B
Sat 11:36:15 PM 41.1520 118.0710 258° West 372 428 28,200  Level FlightAware ADS-B
Sat 11:36:51 PM 41.1410 118.0020 258° West 372 428 28,200 -1,572 Level FlightAware ADS-B
Sat 11:39:00 PM 40.9930 117.8001 226° Southwest  Level Estimated
Sat 11:40:00 PM 40.9240 117.7064 226° Southwest  Level Estimated
Sat 11:41:00 PM 40.8549 117.6130 226° Southwest  Level Estimated
Sat 11:42:00 PM 40.7858 117.5198 226° Southwest  Level Estimated
Sat 11:43:00 PM 40.7166 117.4268 226° Southwest  Level Estimated
Sat 11:44:00 PM 40.6473 117.3339 225° Southwest  Level Estimated
Sat 11:45:00 PM 40.5780 117.2413 225° Southwest  Level Estimated
Sat 11:46:00 PM 40.5085 117.1488 225° Southwest  Level Estimated
Sat 11:46:41 PM 40.7500 116.9880 225° Southwest 302 348 11,800  Level FlightAware ADS-B
Sat 11:46:56 PM 40.7300 116.9760 204° Southwest 306 352 11,800  Level FlightAware ADS-B
Sat 11:47:59 PM 40.6600 116.9370 203° Southwest 306 352 11,800  Level FlightAware ADS-B
Sat 11:48:47 PM 40.6070 116.9070 203° Southwest 306 352 11,800 -746 Level FlightAware ADS-B
Sat 11:51:00 PM 40.4087 116.7850 205° Southwest  Level Estimated
Sat 11:51:12 PM 40.4170 116.7980 205° Southwest 264 304 9,400  Level FlightAware ADS-B
Sat 11:51:49 PM 40.3760 116.7740 204° Southwest 259 298 9,400 -581 Level FlightAware ADS-B
Sat 11:52:14 PM 40.3480 116.7590 202° Southwest 266 306 8,800 -1,200 Descending FlightAware ADS-B
Sat 11:52:34 PM 40.3250 116.7520 193° South 269 310 8,500 -514 Descending FlightAware ADS-B
Sat 11:52:49 PM 40.3030 116.7500 184° South 272 313 8,500  Level FlightAware ADS-B
Sat 11:53:15 PM 40.2710 116.7520 177° South 270 311 8,500  Level FlightAware ADS-B
Sat 11:53:48 PM 40.2290 116.7540 178° South 272 313 8,500 105 Level FlightAware ADS-B
Sat 11:54:12 PM 40.1990 116.7550 179° South 271 312 8,600  Climbing FlightAware ADS-B
Sat 11:54:38 PM 40.1680 116.7570 177° South 250 288 8,500 -130 Descending FlightAware ADS-B
Sat 11:54:58 PM 40.1460 116.7580 178° South 235 270 8,500  Level FlightAware ADS-B
Sat 11:55:24 PM 40.1180 116.7600 177° South 225 259 8,500  Level FlightAware ADS-B
Sat 11:55:57 PM 40.0860 116.7620 177° South 217 250 8,500 -333 Level FlightAware ADS-B
Sat 11:56:18 PM 40.0640 116.7630 178° South 221 254 8,200 -1,200 Descending FlightAware ADS-B
Sat 11:56:42 PM 40.0390 116.7640 178° South 233 268 7,600 -1,224 Descending FlightAware ADS-B
Sat 11:57:07 PM 40.0120 116.7650 178° South 231 266 7,200 -1,227 Descending FlightAware ADS-B
Sat 11:57:26 PM 39.9920 116.7660 178° South 240 276 6,700 -894 Descending FlightAware ADS-B
Sat 11:57:54 PM 39.9600 116.7680 177° South 235 270 6,500 -279 Descending FlightAware ADS-B
Sat 11:58:09 PM 39.9440 116.7680 180° South 236 272 6,500 -692 Level FlightAware ADS-B
Sat 11:58:46 PM 39.9050 116.7710 177° South 228 262 5,900 -923 Descending FlightAware ADS-B
Sat 11:59:01 PM 39.8890 116.7710 180° South 223 257 5,700 -286 Descending FlightAware ADS-B
Sat 11:59:28 PM 39.8660 116.7720 178° South 223 257 5,700 -667 Level FlightAware ADS-B
Sun 12:00:49 AM 39.7830 116.7830 174° South 207 238 4,500 -848 Descending FlightAware ADS-B
Sun 12:01:00 AM 39.7740 116.7840 175° South 205 236 4,400 -655 Descending FlightAware ADS-B
Sun 12:01:44 AM 39.7320 116.7910 173° South 198 228 3,900 -435 Descending FlightAware ADS-B
Sun 12:02:09 AM 39.7120 116.7940 173° South 198 228 3,900 -308 Level FlightAware ADS-B
Sun 12:03:02 AM 39.8640 116.7750 355° North 206 237 3,500 -632 Descending FlightAware ADS-B
Sun 12:03:25 AM 39.8850 116.7720 354° North 160 184 3,100 -500 Descending FlightAware ADS-B
Sun 12:04:26 AM 39.7520 116.6940 204° Southwest 160 184 2,800 -261 Descending FlightAware ADS-B
Sun 12:05:20 AM 39.7870 116.6640 327° Northwest 159 183 2,600 -80 Descending FlightAware ADS-B
Sun 12:05:41 AM 39.8040 116.6570 342° North 168 193 2,700  Climbing FlightAware ADS-B
Sun 12:06:09 AM 39.8250 116.6540 354° North 170 196 2,600 -128 Descending FlightAware ADS-B
Sun 12:06:28 AM 39.8390 116.6520 354° North 167 192 2,600  Level FlightAware ADS-B
Sun 12:06:40 AM 39.8480 116.6510 355° North 165 190 2,600  Level FlightAware ADS-B
Sun 12:06:57 AM 39.8590 116.6490 352° North 163 188 2,600  Level FlightAware ADS-B
Sun 12:07:23 AM 39.8750 116.6460 352° North 163 188 2,600  Level FlightAware ADS-B
Sun 12:07:50 AM 39.8970 116.6430 354° North 150 173 2,600 -182 Level FlightAware ADS-B
Sun 12:08:29 AM 39.9250 116.6390 354° North 132 152 2,400 -480 Descending FlightAware ADS-B
Sun 12:09:05 AM 39.9470 116.6350 352° North 138 159 2,000 -643 Descending FlightAware ADS-B
Sun 12:09:25 AM 39.9580 116.6330 352° North 140 161 1,800 -800 Descending FlightAware ADS-B
Sun 12:09:35 AM 39.9660 116.6320 355° North 139 160 1,600 -316 Descending FlightAware ADS-B
Sun 12:10:03 AM 39.9810 116.6300 354° North 139 160 1,600 -750 Level FlightAware ADS-B
Sun 12:10:23 AM 39.9980 116.6270 352° North 139 160 1,000 -750 Descending FlightAware ADS-B
Sun 12:10:51 AM 40.0130 116.6250 354° North 139 160 1,000  Level FlightAware ADS-B
Sun 12:13:00 AM 40.0801 116.5846 335° Northwest  Level Estimated

Login

Don't have an account? Register now (free) for customized features, flight alerts, and more!